createdAt,value
2022-09-28T00:01:21.088Z,17.63
2022-09-28T00:06:25.205Z,14.75
2022-09-28T00:11:28.242Z,12.93
2022-09-28T00:16:35.955Z,12.68
2022-09-28T00:21:40.274Z,11.05
2022-09-28T00:26:43.865Z,9.88
2022-09-28T00:31:46.519Z,7.88
2022-09-28T00:36:48.845Z,8.73
2022-09-28T00:41:51.144Z,5.90
2022-09-28T00:47:13.314Z,6.35
2022-09-28T00:52:25.551Z,4.88
2022-09-28T00:57:28.904Z,7.40
2022-09-28T01:02:31.404Z,3.17
2022-09-28T01:07:34.636Z,5.00
2022-09-28T01:12:36.528Z,3.63
2022-09-28T01:17:48.858Z,4.13
2022-09-28T01:23:22.437Z,8.43
2022-09-28T01:28:28.903Z,3.90
2022-09-28T01:33:47.502Z,7.07
2022-09-28T01:38:57.912Z,9.23
2022-09-28T01:44:03.069Z,4.43
2022-09-28T01:49:30.936Z,3.38
2022-09-28T01:54:45.612Z,4.00
2022-09-28T02:00:08.477Z,3.78
2022-09-28T02:05:23.292Z,4.45
2022-09-28T02:10:31.141Z,3.75
2022-09-28T02:16:00.731Z,4.35
2022-09-28T02:21:40.745Z,4.70
2022-09-28T02:26:44.950Z,5.53
2022-09-28T02:31:47.102Z,5.95
2022-09-28T02:36:49.505Z,4.75
2022-09-28T02:42:00.420Z,7.07
2022-09-28T02:47:14.589Z,4.97
2022-09-28T02:52:41.165Z,3.40
2022-09-28T02:58:07.201Z,6.30
2022-09-28T03:03:23.840Z,7.13
2022-09-28T03:08:35.183Z,8.57
2022-09-28T03:13:38.238Z,7.72
2022-09-28T03:18:40.426Z,4.93
2022-09-28T03:23:42.991Z,5.50
2022-09-28T03:28:51.781Z,8.07
2022-09-28T03:33:59.901Z,8.82
2022-09-28T03:39:01.863Z,14.43
2022-09-28T03:44:04.299Z,11.85
2022-09-28T03:49:10.040Z,9.35
2022-09-28T03:54:12.979Z,9.85
2022-09-28T03:59:14.899Z,9.70
2022-09-28T04:04:17.004Z,8.35
2022-09-28T04:09:20.178Z,8.45
2022-09-28T04:14:22.198Z,6.82
2022-09-28T04:19:24.092Z,9.88
2022-09-28T04:24:52.299Z,9.82
2022-09-28T04:29:54.144Z,10.85
2022-09-28T04:34:56.094Z,11.60
2022-09-28T04:39:58.005Z,12.45
2022-09-28T04:45:00.981Z,13.32
2022-09-28T04:50:04.771Z,13.00
2022-09-28T04:55:13.537Z,12.48
2022-09-28T05:00:16.250Z,13.73
2022-09-28T05:05:29.978Z,11.57
2022-09-28T05:11:06.197Z,15.80
2022-09-28T05:16:09.024Z,13.52
2022-09-28T05:21:26.325Z,12.75
2022-09-28T05:26:28.333Z,13.48
2022-09-28T05:31:30.501Z,12.90
2022-09-28T05:36:42.843Z,10.70
2022-09-28T05:41:44.712Z,13.15
2022-09-28T05:46:46.642Z,9.15
2022-09-28T05:51:49.053Z,10.20
2022-09-28T05:56:51.336Z,9.38
2022-09-28T06:01:53.340Z,11.25
2022-09-28T06:06:56.704Z,12.10
2022-09-28T06:11:59.627Z,10.32
2022-09-28T06:17:09.841Z,10.63
2022-09-28T06:22:11.915Z,56.38
2022-09-28T06:27:20.614Z,9.80
2022-09-28T06:32:22.658Z,9.80
2022-09-28T06:37:27.255Z,7.65
2022-09-28T06:42:30.120Z,9.05
2022-09-28T06:48:00.369Z,6.78
2022-09-28T06:53:15.123Z,6.68
2022-09-28T06:58:32.402Z,13.43
2022-09-28T07:03:35.674Z,8.48
2022-09-28T07:09:06.281Z,6.38
2022-09-28T07:14:57.498Z,8.02
2022-09-28T07:20:15.783Z,9.38
2022-09-28T07:25:20.593Z,7.38
2022-09-28T07:30:44.777Z,6.43
2022-09-28T07:35:52.654Z,11.88
2022-09-28T07:41:11.938Z,7.90
2022-09-28T07:46:22.212Z,8.45
2022-09-28T07:51:34.867Z,6.65
2022-09-28T07:56:57.564Z,7.80
2022-09-28T08:02:20.315Z,6.68
2022-09-28T08:07:24.253Z,7.63
2022-09-28T08:12:34.009Z,6.55
2022-09-28T08:17:47.250Z,8.25
2022-09-28T08:22:49.757Z,7.10
2022-09-28T08:27:52.329Z,6.30
2022-09-28T08:32:54.605Z,8.82
2022-09-28T08:38:15.408Z,6.40
2022-09-28T08:43:50.432Z,7.30
2022-09-28T08:49:26.486Z,5.55
2022-09-28T08:54:58.839Z,7.30
2022-09-28T09:00:22.912Z,9.40
2022-09-28T09:05:45.989Z,5.90
2022-09-28T09:10:58.880Z,5.60
2022-09-28T09:16:38.092Z,6.75
2022-09-28T09:22:30.461Z,11.70
2022-09-28T09:28:20.765Z,5.68
2022-09-28T09:34:04.340Z,11.45
2022-09-28T09:39:35.296Z,7.63
2022-09-28T09:45:29.152Z,11.25
2022-09-28T09:51:26.618Z,5.15
2022-09-28T09:56:43.753Z,8.55
2022-09-28T10:02:23.233Z,4.93
2022-09-28T10:07:46.091Z,5.32
2022-09-28T10:12:51.072Z,5.20
2022-09-28T10:17:55.928Z,30.58
2022-09-28T10:23:38.025Z,4.47
2022-09-28T10:28:48.224Z,5.68
2022-09-28T10:33:53.531Z,7.22
2022-09-28T10:38:55.970Z,4.35
2022-09-28T10:44:10.710Z,3.65
2022-09-28T10:49:43.108Z,4.50
2022-09-28T10:54:53.630Z,7.28
2022-09-28T10:59:57.249Z,5.05
2022-09-28T11:05:07.351Z,4.35
2022-09-28T11:10:27.338Z,3.38
2022-09-28T11:15:33.986Z,3.53
2022-09-28T11:20:44.056Z,2.30
2022-09-28T11:26:06.900Z,2.70
2022-09-28T11:31:10.141Z,4.00
2022-09-28T11:37:01.854Z,2.55
2022-09-28T11:42:29.153Z,5.50
2022-09-28T11:47:47.242Z,4.03
2022-09-28T11:52:54.900Z,5.35
2022-09-28T11:58:04.031Z,3.40
2022-09-28T12:03:13.689Z,4.68
2022-09-28T12:08:20.250Z,6.63
2022-09-28T12:13:39.087Z,4.57
2022-09-28T12:18:53.462Z,4.22
2022-09-28T12:24:24.963Z,3.97
2022-09-28T12:29:33.596Z,1.20
2022-09-28T12:34:35.583Z,3.72
2022-09-28T12:39:57.883Z,3.95
2022-09-28T12:45:22.148Z,1.87
2022-09-28T12:50:57.767Z,2.65
2022-09-28T12:56:10.283Z,10.00
2022-09-28T13:01:44.356Z,4.28
2022-09-28T13:07:08.086Z,3.72
2022-09-28T13:17:18.004Z,4.20
2022-09-28T13:22:28.962Z,7.25
2022-09-28T13:27:38.087Z,3.20
2022-09-28T13:32:42.178Z,2.33
2022-09-28T13:37:44.097Z,3.13
2022-09-28T13:42:54.536Z,12.32
2022-09-28T13:48:17.445Z,2.80
2022-09-28T13:53:25.302Z,4.60
2022-09-28T13:58:47.877Z,4.80
2022-09-28T14:03:55.225Z,2.17
2022-09-28T14:09:18.697Z,3.42
2022-09-28T14:14:51.783Z,3.13
2022-09-28T14:20:08.067Z,3.85
2022-09-28T14:25:31.341Z,3.90
2022-09-28T14:30:42.503Z,4.63
2022-09-28T14:35:56.426Z,5.78
2022-09-28T14:41:10.604Z,2.83
2022-09-28T14:46:17.239Z,7.35
2022-09-28T14:51:42.388Z,5.70
2022-09-28T14:56:53.376Z,11.23
2022-09-28T15:02:06.338Z,9.15
2022-09-28T15:07:23.063Z,6.00
2022-09-28T15:12:32.064Z,3.30
2022-09-28T15:17:40.367Z,4.00
2022-09-28T15:22:50.800Z,8.32
2022-09-28T15:27:55.680Z,7.20
2022-09-28T15:33:18.834Z,7.80
2022-09-28T15:38:21.205Z,11.13
2022-09-28T15:43:32.824Z,10.38
2022-09-28T15:54:09.294Z,12.93
2022-09-28T15:59:31.036Z,11.30
2022-09-28T16:04:38.959Z,17.33
2022-09-28T16:10:13.090Z,24.45
2022-09-28T16:15:20.213Z,12.25
2022-09-28T16:20:32.139Z,20.52
2022-09-28T16:25:39.235Z,30.27
2022-09-28T16:31:07.577Z,14.82
2022-09-28T16:36:14.326Z,47.50
2022-09-28T16:41:20.850Z,18.25
2022-09-28T16:46:29.347Z,17.50
2022-09-28T16:51:31.656Z,30.33
2022-09-28T16:56:35.362Z,22.00
2022-09-28T17:01:42.258Z,35.78
2022-09-28T17:06:44.314Z,26.98
2022-09-28T17:11:46.333Z,22.40
2022-09-28T17:17:07.817Z,17.60
2022-09-28T17:22:11.888Z,27.05
2022-09-28T17:27:18.195Z,27.95
2022-09-28T17:32:20.279Z,21.15
2022-09-28T17:37:22.831Z,16.52
2022-09-28T17:42:24.891Z,24.38
2022-09-28T17:47:29.052Z,22.95
2022-09-28T17:52:34.598Z,18.80
2022-09-28T17:57:36.821Z,21.83
2022-09-28T18:02:39.063Z,17.92
2022-09-28T18:07:46.779Z,14.55
2022-09-28T18:12:50.711Z,24.00
2022-09-28T18:17:52.943Z,24.17
2022-09-28T18:23:00.317Z,25.88
2022-09-28T18:28:02.755Z,24.83
2022-09-28T18:33:05.150Z,22.33
2022-09-28T18:38:07.296Z,24.83
2022-09-28T18:43:09.325Z,49.03
2022-09-28T18:48:11.360Z,50.95
2022-09-28T18:53:13.427Z,83.30
2022-09-28T18:58:15.480Z,57.42
2022-09-28T19:03:18.355Z,50.70
2022-09-28T19:08:23.191Z,67.63
2022-09-28T19:13:28.845Z,41.88
2022-09-28T19:18:31.305Z,31.60
2022-09-28T19:23:34.522Z,49.07
2022-09-28T19:28:36.447Z,18.23
2022-09-28T19:33:39.791Z,18.20
2022-09-28T19:38:42.306Z,18.33
2022-09-28T19:43:44.234Z,18.52
2022-09-28T19:48:47.421Z,16.35
2022-09-28T19:53:49.373Z,16.50
2022-09-28T19:58:51.448Z,25.52
2022-09-28T20:03:58.286Z,22.00
2022-09-28T20:09:00.254Z,22.23
2022-09-28T20:14:06.530Z,22.83
2022-09-28T20:19:08.513Z,22.33
2022-09-28T20:24:11.614Z,17.27
2022-09-28T20:29:13.754Z,17.97
2022-09-28T20:34:15.826Z,22.13
2022-09-28T20:39:17.700Z,24.73
2022-09-28T20:44:19.768Z,21.38
2022-09-28T20:49:21.855Z,24.95
2022-09-28T20:54:23.733Z,24.98
2022-09-28T20:59:27.649Z,23.08
2022-09-28T21:04:29.561Z,32.13
2022-09-28T21:09:32.425Z,22.98
2022-09-28T21:14:34.299Z,35.97
2022-09-28T21:19:36.265Z,64.57
2022-09-28T21:24:38.430Z,45.00
2022-09-28T21:29:40.621Z,44.15
2022-09-28T21:34:42.562Z,42.80
2022-09-28T21:39:44.496Z,38.47
2022-09-28T21:44:46.376Z,41.78
2022-09-28T21:49:48.326Z,38.53
2022-09-28T21:54:50.234Z,85.25
2022-09-28T21:59:52.652Z,104.75
2022-09-28T22:04:54.581Z,98.28
2022-09-28T22:09:56.589Z,62.83
2022-09-28T22:14:58.670Z,29.42
2022-09-28T22:20:00.782Z,47.38
2022-09-28T22:25:02.984Z,22.95
2022-09-28T22:30:05.353Z,21.60
2022-09-28T22:35:07.752Z,19.88
2022-09-28T22:40:12.729Z,22.88
2022-09-28T22:45:14.956Z,27.67
2022-09-28T22:50:16.908Z,33.75
2022-09-28T22:55:18.828Z,24.48
2022-09-28T23:00:20.905Z,36.88
2022-09-28T23:05:22.829Z,43.13
2022-09-28T23:10:24.728Z,28.90
2022-09-28T23:15:27.953Z,25.92
2022-09-28T23:20:29.861Z,26.15
2022-09-28T23:25:32.009Z,20.40
2022-09-28T23:30:33.844Z,22.77
2022-09-28T23:35:35.767Z,22.98
2022-09-28T23:40:37.860Z,19.92
2022-09-28T23:45:40.588Z,17.65
2022-09-28T23:50:43.506Z,17.58
2022-09-28T23:55:45.556Z,15.07
